sensor_id;sensor_type;location;lat;lon;timestamp;pressure;altitude;pressure_sealevel;temperature;humidity
73651;BME280;61944;52.538;6.108;2023-05-23T00:01:13;101632.00;;;15.50;100.00
73651;BME280;61944;52.538;6.108;2023-05-23T00:03:42;101639.22;;;15.47;100.00
73651;BME280;61944;52.538;6.108;2023-05-23T00:06:07;101632.06;;;15.64;100.00
73651;BME280;61944;52.538;6.108;2023-05-23T00:08:33;101639.97;;;15.40;100.00
73651;BME280;61944;52.538;6.108;2023-05-23T00:10:58;101646.09;;;15.53;100.00
73651;BME280;61944;52.538;6.108;2023-05-23T00:13:24;101657.88;;;15.11;100.00
73651;BME280;61944;52.538;6.108;2023-05-23T00:15:49;101636.56;;;15.13;100.00
73651;BME280;61944;52.538;6.108;2023-05-23T00:18:15;101634.16;;;15.12;100.00
73651;BME280;61944;52.538;6.108;2023-05-23T00:20:41;101654.81;;;14.82;100.00
73651;BME280;61944;52.538;6.108;2023-05-23T00:23:10;101654.22;;;15.07;100.00
73651;BME280;61944;52.538;6.108;2023-05-23T00:25:42;101653.66;;;15.35;100.00
73651;BME280;61944;52.538;6.108;2023-05-23T00:28:12;101654.38;;;15.24;100.00
73651;BME280;61944;52.538;6.108;2023-05-23T00:30:38;101660.53;;;14.89;100.00
73651;BME280;61944;52.538;6.108;2023-05-23T00:33:03;101653.66;;;14.87;100.00
73651;BME280;61944;52.538;6.108;2023-05-23T00:35:29;101659.56;;;15.19;100.00
73651;BME280;61944;52.538;6.108;2023-05-23T00:37:55;101657.09;;;14.69;100.00
73651;BME280;61944;52.538;6.108;2023-05-23T00:40:23;101657.44;;;15.01;100.00
73651;BME280;61944;52.538;6.108;2023-05-23T00:42:49;101657.44;;;15.01;100.00
73651;BME280;61944;52.538;6.108;2023-05-23T00:45:16;101661.09;;;15.09;100.00
73651;BME280;61944;52.538;6.108;2023-05-23T00:47:43;101672.00;;;15.11;100.00
73651;BME280;61944;52.538;6.108;2023-05-23T00:50:11;101676.03;;;15.10;100.00
73651;BME280;61944;52.538;6.108;2023-05-23T00:52:39;101669.09;;;15.00;100.00
73651;BME280;61944;52.538;6.108;2023-05-23T00:55:05;101680.34;;;15.00;100.00
73651;BME280;61944;52.538;6.108;2023-05-23T00:57:32;101669.22;;;15.14;100.00
73651;BME280;61944;52.538;6.108;2023-05-23T00:59:59;101673.16;;;15.06;100.00
73651;BME280;61944;52.538;6.108;2023-05-23T01:02:25;101671.19;;;15.10;100.00
73651;BME280;61944;52.538;6.108;2023-05-23T01:04:52;101670.91;;;14.81;100.00
73651;BME280;61944;52.538;6.108;2023-05-23T01:07:22;101686.78;;;14.97;100.00
73651;BME280;61944;52.538;6.108;2023-05-23T01:09:48;101678.00;;;14.64;100.00
73651;BME280;61944;52.538;6.108;2023-05-23T01:15:20;101681.09;;;14.93;100.00
73651;BME280;61944;52.538;6.108;2023-05-23T01:18:01;101678.94;;;14.79;100.00
73651;BME280;61944;52.538;6.108;2023-05-23T01:20:33;101685.09;;;14.92;100.00
73651;BME280;61944;52.538;6.108;2023-05-23T01:26:12;101690.66;;;14.48;100.00
73651;BME280;61944;52.538;6.108;2023-05-23T01:28:45;101691.59;;;14.55;100.00
73651;BME280;61944;52.538;6.108;2023-05-23T01:31:11;101682.41;;;14.62;100.00
73651;BME280;61944;52.538;6.108;2023-05-23T01:33:39;101690.91;;;14.66;100.00
73651;BME280;61944;52.538;6.108;2023-05-23T01:36:05;101691.00;;;14.76;100.00
73651;BME280;61944;52.538;6.108;2023-05-23T01:38:30;101690.22;;;14.79;100.00
73651;BME280;61944;52.538;6.108;2023-05-23T01:40:56;101687.69;;;14.33;100.00
73651;BME280;61944;52.538;6.108;2023-05-23T01:43:23;101701.28;;;14.58;100.00
73651;BME280;61944;52.538;6.108;2023-05-23T01:45:49;101704.41;;;14.53;100.00
73651;BME280;61944;52.538;6.108;2023-05-23T01:48:17;101706.03;;;14.54;100.00
73651;BME280;61944;52.538;6.108;2023-05-23T01:50:43;101701.50;;;14.79;100.00
73651;BME280;61944;52.538;6.108;2023-05-23T01:53:20;101698.88;;;14.60;100.00
73651;BME280;61944;52.538;6.108;2023-05-23T01:55:46;101706.97;;;14.65;100.00
73651;BME280;61944;52.538;6.108;2023-05-23T01:58:12;101708.50;;;14.55;100.00
73651;BME280;61944;52.538;6.108;2023-05-23T02:00:37;101712.53;;;14.58;100.00
73651;BME280;61944;52.538;6.108;2023-05-23T02:03:03;101711.59;;;14.47;100.00
73651;BME280;61944;52.538;6.108;2023-05-23T02:05:28;101712.16;;;14.59;100.00
73651;BME280;61944;52.538;6.108;2023-05-23T02:07:54;101715.06;;;14.67;100.00
73651;BME280;61944;52.538;6.108;2023-05-23T02:10:20;101710.47;;;14.89;100.00
73651;BME280;61944;52.538;6.108;2023-05-23T02:12:45;101721.75;;;14.89;100.00
73651;BME280;61944;52.538;6.108;2023-05-23T02:15:10;101723.19;;;14.75;100.00
73651;BME280;61944;52.538;6.108;2023-05-23T02:17:36;101723.34;;;14.90;100.00
73651;BME280;61944;52.538;6.108;2023-05-23T02:20:03;101725.94;;;14.34;100.00
73651;BME280;61944;52.538;6.108;2023-05-23T02:22:28;101731.91;;;14.63;100.00
73651;BME280;61944;52.538;6.108;2023-05-23T02:24:54;101743.34;;;14.77;100.00
73651;BME280;61944;52.538;6.108;2023-05-23T02:27:19;101741.56;;;14.62;100.00
73651;BME280;61944;52.538;6.108;2023-05-23T02:29:44;101742.03;;;14.37;100.00
73651;BME280;61944;52.538;6.108;2023-05-23T02:32:10;101739.78;;;14.50;100.00
73651;BME280;61944;52.538;6.108;2023-05-23T02:34:38;101741.28;;;14.40;100.00
73651;BME280;61944;52.538;6.108;2023-05-23T02:37:04;101751.75;;;14.40;100.00
73651;BME280;61944;52.538;6.108;2023-05-23T02:39:29;101746.69;;;14.22;100.00
73651;BME280;61944;52.538;6.108;2023-05-23T02:41:55;101752.09;;;14.05;100.00
73651;BME280;61944;52.538;6.108;2023-05-23T02:44:20;101753.75;;;14.39;100.00
73651;BME280;61944;52.538;6.108;2023-05-23T02:46:45;101765.88;;;14.43;100.00
73651;BME280;61944;52.538;6.108;2023-05-23T02:49:11;101760.59;;;14.38;100.00
73651;BME280;61944;52.538;6.108;2023-05-23T02:51:36;101761.69;;;14.30;100.00
73651;BME280;61944;52.538;6.108;2023-05-23T02:54:02;101764.00;;;14.55;100.00
73651;BME280;61944;52.538;6.108;2023-05-23T02:56:27;101756.94;;;14.68;100.00
73651;BME280;61944;52.538;6.108;2023-05-23T02:58:53;101758.56;;;14.69;100.00
73651;BME280;61944;52.538;6.108;2023-05-23T03:01:18;101767.28;;;14.57;100.00
73651;BME280;61944;52.538;6.108;2023-05-23T03:03:44;101756.94;;;14.68;100.00
73651;BME280;61944;52.538;6.108;2023-05-23T03:06:09;101756.28;;;14.82;100.00
73651;BME280;61944;52.538;6.108;2023-05-23T03:08:41;101761.47;;;14.16;100.00
73651;BME280;61944;52.538;6.108;2023-05-23T03:11:07;101766.03;;;14.24;100.00
73651;BME280;61944;52.538;6.108;2023-05-23T03:13:33;101771.72;;;14.28;100.00
73651;BME280;61944;52.538;6.108;2023-05-23T03:15:59;101761.31;;;14.32;100.00
73651;BME280;61944;52.538;6.108;2023-05-23T03:18:24;101766.50;;;14.30;100.00
73651;BME280;61944;52.538;6.108;2023-05-23T03:20:49;101766.09;;;14.31;100.00
73651;BME280;61944;52.538;6.108;2023-05-23T03:23:15;101771.41;;;14.36;100.00
73651;BME280;61944;52.538;6.108;2023-05-23T03:25:41;101766.34;;;14.49;100.00
73651;BME280;61944;52.538;6.108;2023-05-23T03:28:07;101767.09;;;14.16;100.00
73651;BME280;61944;52.538;6.108;2023-05-23T03:30:32;101764.88;;;14.29;100.00
73651;BME280;61944;52.538;6.108;2023-05-23T03:32:58;101772.50;;;14.28;100.00
73651;BME280;61944;52.538;6.108;2023-05-23T03:35:23;101769.09;;;14.46;100.00
73651;BME280;61944;52.538;6.108;2023-05-23T03:37:49;101774.03;;;14.22;100.00
73651;BME280;61944;52.538;6.108;2023-05-23T03:40:14;101769.84;;;14.39;100.00
73651;BME280;61944;52.538;6.108;2023-05-23T03:42:39;101780.63;;;14.33;100.00
73651;BME280;61944;52.538;6.108;2023-05-23T03:45:05;101777.56;;;14.15;100.00
73651;BME280;61944;52.538;6.108;2023-05-23T03:47:31;101784.94;;;13.97;100.00
73651;BME280;61944;52.538;6.108;2023-05-23T03:49:56;101779.00;;;14.32;100.00
73651;BME280;61944;52.538;6.108;2023-05-23T03:52:22;101784.16;;;14.27;100.00
73651;BME280;61944;52.538;6.108;2023-05-23T03:54:47;101786.72;;;14.09;100.00
73651;BME280;61944;52.538;6.108;2023-05-23T03:57:12;101785.16;;;13.85;100.00
73651;BME280;61944;52.538;6.108;2023-05-23T03:59:38;101793.66;;;13.88;100.00
73651;BME280;61944;52.538;6.108;2023-05-23T04:02:03;101781.81;;;13.75;100.00
73651;BME280;61944;52.538;6.108;2023-05-23T04:04:30;101795.44;;;14.00;100.00
73651;BME280;61944;52.538;6.108;2023-05-23T04:06:55;101798.84;;;13.86;100.00
73651;BME280;61944;52.538;6.108;2023-05-23T04:09:22;101804.22;;;13.45;100.00
73651;BME280;61944;52.538;6.108;2023-05-23T04:11:47;101805.56;;;13.78;100.00
73651;BME280;61944;52.538;6.108;2023-05-23T04:14:13;101800.09;;;13.89;100.00
73651;BME280;61944;52.538;6.108;2023-05-23T04:16:38;101803.91;;;13.50;100.00
73651;BME280;61944;52.538;6.108;2023-05-23T04:19:06;101810.19;;;13.67;100.00
73651;BME280;61944;52.538;6.108;2023-05-23T04:21:32;101813.28;;;13.58;100.00
73651;BME280;61944;52.538;6.108;2023-05-23T04:23:57;101815.84;;;13.67;100.00
73651;BME280;61944;52.538;6.108;2023-05-23T04:26:22;101812.59;;;13.65;100.00
73651;BME280;61944;52.538;6.108;2023-05-23T04:28:48;101825.25;;;13.55;100.00
73651;BME280;61944;52.538;6.108;2023-05-23T04:31:14;101829.28;;;13.54;100.00
73651;BME280;61944;52.538;6.108;2023-05-23T04:33:39;101824.72;;;13.69;100.00
73651;BME280;61944;52.538;6.108;2023-05-23T04:36:05;101835.09;;;13.65;100.00
73651;BME280;61944;52.538;6.108;2023-05-23T04:38:33;101840.72;;;13.65;100.00
73651;BME280;61944;52.538;6.108;2023-05-23T04:40:58;101833.06;;;13.88;100.00
73651;BME280;61944;52.538;6.108;2023-05-23T04:43:24;101832.50;;;13.79;100.00
73651;BME280;61944;52.538;6.108;2023-05-23T04:45:50;101839.66;;;13.50;100.00
73651;BME280;61944;52.538;6.108;2023-05-23T04:48:18;101842.28;;;13.62;100.00
73651;BME280;61944;52.538;6.108;2023-05-23T04:50:46;101844.59;;;13.56;100.00
73651;BME280;61944;52.538;6.108;2023-05-23T04:53:12;101849.59;;;13.67;100.00
73651;BME280;61944;52.538;6.108;2023-05-23T04:55:38;101861.09;;;13.81;100.00
73651;BME280;61944;52.538;6.108;2023-05-23T04:58:03;101861.47;;;13.56;100.00
73651;BME280;61944;52.538;6.108;2023-05-23T05:00:29;101869.09;;;13.56;100.00
73651;BME280;61944;52.538;6.108;2023-05-23T05:02:54;101859.38;;;13.53;100.00
73651;BME280;61944;52.538;6.108;2023-05-23T05:05:20;101871.72;;;13.45;100.00
73651;BME280;61944;52.538;6.108;2023-05-23T05:07:45;101879.34;;;13.68;100.00
73651;BME280;61944;52.538;6.108;2023-05-23T05:10:11;101884.03;;;13.60;100.00
73651;BME280;61944;52.538;6.108;2023-05-23T05:12:42;101884.03;;;13.37;100.00
73651;BME280;61944;52.538;6.108;2023-05-23T05:15:08;101886.59;;;13.26;100.00
73651;BME280;61944;52.538;6.108;2023-05-23T05:17:33;101884.06;;;13.21;100.00
73651;BME280;61944;52.538;6.108;2023-05-23T05:20:01;101888.31;;;13.31;100.00
73651;BME280;61944;52.538;6.108;2023-05-23T05:22:30;101896.88;;;13.38;100.00
73651;BME280;61944;52.538;6.108;2023-05-23T05:24:55;101892.13;;;13.42;100.00
73651;BME280;61944;52.538;6.108;2023-05-23T05:27:20;101895.25;;;13.37;100.00
73651;BME280;61944;52.538;6.108;2023-05-23T05:29:46;101907.75;;;13.39;100.00
73651;BME280;61944;52.538;6.108;2023-05-23T05:32:12;101916.22;;;13.62;100.00
73651;BME280;61944;52.538;6.108;2023-05-23T05:34:37;101921.94;;;13.27;100.00
73651;BME280;61944;52.538;6.108;2023-05-23T05:37:03;101927.22;;;13.09;100.00
73651;BME280;61944;52.538;6.108;2023-05-23T05:39:28;101925.06;;;13.02;100.00
73651;BME280;61944;52.538;6.108;2023-05-23T05:41:53;101930.09;;;13.32;100.00
73651;BME280;61944;52.538;6.108;2023-05-23T05:44:20;101934.56;;;13.33;100.00
73651;BME280;61944;52.538;6.108;2023-05-23T05:46:45;101929.91;;;13.41;100.00
73651;BME280;61944;52.538;6.108;2023-05-23T05:49:10;101932.84;;;13.09;100.00
73651;BME280;61944;52.538;6.108;2023-05-23T05:51:36;101935.34;;;13.14;100.00
73651;BME280;61944;52.538;6.108;2023-05-23T05:54:01;101935.41;;;12.98;100.00
73651;BME280;61944;52.538;6.108;2023-05-23T05:56:26;101948.50;;;12.91;100.00
73651;BME280;61944;52.538;6.108;2023-05-23T05:58:52;101949.75;;;12.93;100.00
73651;BME280;61944;52.538;6.108;2023-05-23T06:01:17;101957.81;;;13.30;100.00
73651;BME280;61944;52.538;6.108;2023-05-23T06:03:43;101955.69;;;12.88;100.00
73651;BME280;61944;52.538;6.108;2023-05-23T06:06:08;101956.63;;;12.96;100.00
73651;BME280;61944;52.538;6.108;2023-05-23T06:08:34;101978.50;;;12.87;100.00
73651;BME280;61944;52.538;6.108;2023-05-23T06:10:59;101985.75;;;13.62;100.00
73651;BME280;61944;52.538;6.108;2023-05-23T06:13:24;101976.00;;;13.56;100.00
73651;BME280;61944;52.538;6.108;2023-05-23T06:15:50;101980.84;;;13.59;100.00
73651;BME280;61944;52.538;6.108;2023-05-23T06:18:15;101982.19;;;13.65;100.00
73651;BME280;61944;52.538;6.108;2023-05-23T06:20:41;101973.66;;;13.22;100.00
73651;BME280;61944;52.538;6.108;2023-05-23T06:23:06;101976.81;;;13.37;100.00
73651;BME280;61944;52.538;6.108;2023-05-23T06:25:32;101974.56;;;13.27;100.00
73651;BME280;61944;52.538;6.108;2023-05-23T06:27:58;101985.75;;;13.42;100.00
73651;BME280;61944;52.538;6.108;2023-05-23T06:30:23;101973.09;;;13.52;100.00
73651;BME280;61944;52.538;6.108;2023-05-23T06:32:49;101980.97;;;13.43;100.00
73651;BME280;61944;52.538;6.108;2023-05-23T06:35:14;101984.13;;;13.41;100.00
73651;BME280;61944;52.538;6.108;2023-05-23T06:37:39;101988.31;;;13.51;100.00
73651;BME280;61944;52.538;6.108;2023-05-23T06:40:10;101989.47;;;12.92;100.00
73651;BME280;61944;52.538;6.108;2023-05-23T06:42:36;102004.78;;;12.59;100.00
73651;BME280;61944;52.538;6.108;2023-05-23T06:45:01;102000.94;;;12.67;100.00
73651;BME280;61944;52.538;6.108;2023-05-23T06:47:26;101998.91;;;12.48;100.00
73651;BME280;61944;52.538;6.108;2023-05-23T06:49:52;101998.19;;;12.87;100.00
73651;BME280;61944;52.538;6.108;2023-05-23T06:52:17;102004.22;;;12.69;100.00
73651;BME280;61944;52.538;6.108;2023-05-23T06:54:42;102004.72;;;12.91;100.00
73651;BME280;61944;52.538;6.108;2023-05-23T06:57:08;102003.06;;;12.90;100.00
73651;BME280;61944;52.538;6.108;2023-05-23T06:59:33;102006.31;;;12.92;100.00
73651;BME280;61944;52.538;6.108;2023-05-23T07:01:58;102025.78;;;12.65;100.00
73651;BME280;61944;52.538;6.108;2023-05-23T07:04:24;102022.88;;;12.46;100.00
73651;BME280;61944;52.538;6.108;2023-05-23T07:06:49;102021.50;;;12.39;100.00
73651;BME280;61944;52.538;6.108;2023-05-23T07:09:16;102031.72;;;12.79;100.00
73651;BME280;61944;52.538;6.108;2023-05-23T07:11:42;102028.81;;;12.92;100.00
73651;BME280;61944;52.538;6.108;2023-05-23T07:14:07;102015.28;;;12.97;100.00
73651;BME280;61944;52.538;6.108;2023-05-23T07:16:32;102036.56;;;12.98;100.00
73651;BME280;61944;52.538;6.108;2023-05-23T07:19:00;102026.41;;;13.10;100.00
73651;BME280;61944;52.538;6.108;2023-05-23T07:21:25;102026.19;;;13.18;100.00
73651;BME280;61944;52.538;6.108;2023-05-23T07:23:50;102027.09;;;12.87;100.00
73651;BME280;61944;52.538;6.108;2023-05-23T07:26:16;102025.41;;;13.02;100.00
73651;BME280;61944;52.538;6.108;2023-05-23T07:28:41;102035.53;;;13.22;100.00
73651;BME280;61944;52.538;6.108;2023-05-23T07:31:06;102040.97;;;13.15;100.00
73651;BME280;61944;52.538;6.108;2023-05-23T07:33:33;102050.75;;;13.21;100.00
73651;BME280;61944;52.538;6.108;2023-05-23T07:35:59;102054.66;;;13.33;100.00
73651;BME280;61944;52.538;6.108;2023-05-23T07:38:25;102049.09;;;13.36;100.00
73651;BME280;61944;52.538;6.108;2023-05-23T07:40:50;102053.53;;;13.02;100.00
73651;BME280;61944;52.538;6.108;2023-05-23T07:43:16;102060.72;;;13.35;100.00
73651;BME280;61944;52.538;6.108;2023-05-23T07:45:41;102055.13;;;13.19;100.00
73651;BME280;61944;52.538;6.108;2023-05-23T07:48:07;102059.09;;;13.34;99.14
73651;BME280;61944;52.538;6.108;2023-05-23T07:50:33;102053.66;;;13.25;99.43
73651;BME280;61944;52.538;6.108;2023-05-23T07:52:58;102054.66;;;13.33;98.63
73651;BME280;61944;52.538;6.108;2023-05-23T07:55:24;102057.25;;;13.41;95.90
73651;BME280;61944;52.538;6.108;2023-05-23T07:57:49;102054.22;;;13.31;97.73
73651;BME280;61944;52.538;6.108;2023-05-23T08:00:17;102048.38;;;13.39;98.11
73651;BME280;61944;52.538;6.108;2023-05-23T08:02:42;102051.28;;;13.27;97.26
73651;BME280;61944;52.538;6.108;2023-05-23T08:05:08;102053.78;;;13.29;97.57
73651;BME280;61944;52.538;6.108;2023-05-23T08:07:33;102056.31;;;13.18;96.53
73651;BME280;61944;52.538;6.108;2023-05-23T08:09:59;102071.13;;;12.99;97.55
73651;BME280;61944;52.538;6.108;2023-05-23T08:12:24;102067.13;;;13.00;97.40
73651;BME280;61944;52.538;6.108;2023-05-23T08:14:49;102066.28;;;13.15;95.68
73651;BME280;61944;52.538;6.108;2023-05-23T08:17:15;102073.53;;;13.16;93.46
73651;BME280;61944;52.538;6.108;2023-05-23T08:19:40;102070.38;;;13.18;93.43
73651;BME280;61944;52.538;6.108;2023-05-23T08:22:06;102067.47;;;13.30;94.74
73651;BME280;61944;52.538;6.108;2023-05-23T08:24:31;102072.63;;;13.28;95.48
73651;BME280;61944;52.538;6.108;2023-05-23T08:26:58;102076.50;;;13.23;92.71
73651;BME280;61944;52.538;6.108;2023-05-23T08:29:23;102082.56;;;13.26;92.29
73651;BME280;61944;52.538;6.108;2023-05-23T08:31:49;102076.31;;;13.32;93.36
73651;BME280;61944;52.538;6.108;2023-05-23T08:34:14;102076.84;;;13.38;91.83
73651;BME280;61944;52.538;6.108;2023-05-23T08:36:40;102089.44;;;13.44;89.37
73651;BME280;61944;52.538;6.108;2023-05-23T08:39:07;102103.66;;;13.51;89.79
73651;BME280;61944;52.538;6.108;2023-05-23T08:41:33;102086.81;;;13.71;90.16
73651;BME280;61944;52.538;6.108;2023-05-23T08:43:59;102100.34;;;13.85;86.54
73651;BME280;61944;52.538;6.108;2023-05-23T08:46:25;102090.72;;;13.86;87.28
73651;BME280;61944;52.538;6.108;2023-05-23T08:48:53;102097.09;;;13.63;85.84
73651;BME280;61944;52.538;6.108;2023-05-23T08:51:21;102098.78;;;13.68;85.27
73651;BME280;61944;52.538;6.108;2023-05-23T08:53:49;102093.91;;;13.65;85.86
73651;BME280;61944;52.538;6.108;2023-05-23T08:56:15;102107.09;;;13.80;86.67
73651;BME280;61944;52.538;6.108;2023-05-23T08:58:44;102104.84;;;13.50;86.12
73651;BME280;61944;52.538;6.108;2023-05-23T09:01:15;102095.97;;;13.48;86.28
73651;BME280;61944;52.538;6.108;2023-05-23T09:03:44;102093.81;;;13.61;86.34
73651;BME280;61944;52.538;6.108;2023-05-23T09:06:09;102096.72;;;13.84;85.91
73651;BME280;61944;52.538;6.108;2023-05-23T09:08:35;102098.59;;;13.96;84.79
73651;BME280;61944;52.538;6.108;2023-05-23T09:11:02;102101.75;;;13.94;84.00
73651;BME280;61944;52.538;6.108;2023-05-23T09:13:32;102113.16;;;14.01;82.08
73651;BME280;61944;52.538;6.108;2023-05-23T09:18:26;102104.13;;;14.35;83.86
73651;BME280;61944;52.538;6.108;2023-05-23T09:20:57;102119.78;;;14.32;83.79
73651;BME280;61944;52.538;6.108;2023-05-23T09:23:22;102110.09;;;14.30;82.01
73651;BME280;61944;52.538;6.108;2023-05-23T09:25:48;102109.09;;;14.41;83.16
73651;BME280;61944;52.538;6.108;2023-05-23T09:28:13;102111.50;;;14.62;83.23
73651;BME280;61944;52.538;6.108;2023-05-23T09:30:39;102114.28;;;14.59;81.69
73651;BME280;61944;52.538;6.108;2023-05-23T09:33:04;102120.56;;;14.10;83.34
73651;BME280;61944;52.538;6.108;2023-05-23T09:35:30;102133.22;;;14.19;83.31
73651;BME280;61944;52.538;6.108;2023-05-23T09:37:56;102119.41;;;14.34;81.78
73651;BME280;61944;52.538;6.108;2023-05-23T09:40:28;102130.81;;;14.41;81.89
73651;BME280;61944;52.538;6.108;2023-05-23T09:42:54;102129.13;;;14.36;78.82
73651;BME280;61944;52.538;6.108;2023-05-23T09:45:29;102123.16;;;14.61;78.21
73651;BME280;61944;52.538;6.108;2023-05-23T09:47:54;102138.25;;;14.72;79.38
73651;BME280;61944;52.538;6.108;2023-05-23T09:50:21;102134.72;;;14.79;80.47
73651;BME280;61944;52.538;6.108;2023-05-23T09:52:46;102138.81;;;16.22;82.89
73651;BME280;61944;52.538;6.108;2023-05-23T09:55:12;102131.78;;;15.75;84.53
73651;BME280;61944;52.538;6.108;2023-05-23T09:57:40;102129.75;;;15.18;77.27
73651;BME280;61944;52.538;6.108;2023-05-23T10:00:08;102140.81;;;14.58;80.18
73651;BME280;61944;52.538;6.108;2023-05-23T10:05:05;102136.06;;;14.62;78.79
73651;BME280;61944;52.538;6.108;2023-05-23T10:07:33;102132.00;;;15.09;80.07
73651;BME280;61944;52.538;6.108;2023-05-23T10:10:06;102143.19;;;14.79;78.71
73651;BME280;61944;52.538;6.108;2023-05-23T10:12:41;102139.06;;;14.73;77.88
73651;BME280;61944;52.538;6.108;2023-05-23T10:15:10;102140.38;;;14.56;79.21
73651;BME280;61944;52.538;6.108;2023-05-23T10:18:02;102138.06;;;14.84;79.45
73651;BME280;61944;52.538;6.108;2023-05-23T10:20:31;102140.69;;;14.97;76.96
73651;BME280;61944;52.538;6.108;2023-05-23T10:23:00;102142.16;;;15.40;76.90
73651;BME280;61944;52.538;6.108;2023-05-23T10:25:27;102150.19;;;15.38;74.46
73651;BME280;61944;52.538;6.108;2023-05-23T10:27:57;102153.72;;;15.58;74.21
73651;BME280;61944;52.538;6.108;2023-05-23T10:30:26;102158.81;;;15.76;73.96
73651;BME280;61944;52.538;6.108;2023-05-23T10:32:53;102148.06;;;15.58;76.46
73651;BME280;61944;52.538;6.108;2023-05-23T10:35:24;102157.56;;;15.47;77.15
73651;BME280;61944;52.538;6.108;2023-05-23T10:38:23;102156.41;;;14.98;78.27
73651;BME280;61944;52.538;6.108;2023-05-23T10:41:15;102157.91;;;15.41;77.84
73651;BME280;61944;52.538;6.108;2023-05-23T10:43:54;102154.13;;;15.60;76.26
73651;BME280;61944;52.538;6.108;2023-05-23T10:46:21;102154.09;;;15.87;74.43
73651;BME280;61944;52.538;6.108;2023-05-23T10:48:53;102159.88;;;15.98;75.04
73651;BME280;61944;52.538;6.108;2023-05-23T10:51:18;102167.09;;;15.92;75.65
73651;BME280;61944;52.538;6.108;2023-05-23T10:53:52;102163.81;;;15.33;75.58
73651;BME280;61944;52.538;6.108;2023-05-23T10:56:19;102168.69;;;15.36;76.22
73651;BME280;61944;52.538;6.108;2023-05-23T10:58:54;102167.59;;;15.44;74.35
73651;BME280;61944;52.538;6.108;2023-05-23T11:01:20;102178.28;;;15.84;74.32
73651;BME280;61944;52.538;6.108;2023-05-23T11:09:01;102164.00;;;15.47;74.92
73651;BME280;61944;52.538;6.108;2023-05-23T11:14:19;102172.69;;;15.61;70.95
73651;BME280;61944;52.538;6.108;2023-05-23T11:16:45;102163.69;;;15.52;69.63
73651;BME280;61944;52.538;6.108;2023-05-23T11:21:45;102173.69;;;15.46;70.64
73651;BME280;61944;52.538;6.108;2023-05-23T11:24:11;102178.69;;;15.60;71.94
73651;BME280;61944;52.538;6.108;2023-05-23T11:26:37;102175.41;;;15.28;73.84
73651;BME280;61944;52.538;6.108;2023-05-23T11:29:07;102174.97;;;15.52;72.60
73651;BME280;61944;52.538;6.108;2023-05-23T11:31:37;102190.66;;;15.23;71.56
73651;BME280;61944;52.538;6.108;2023-05-23T11:34:03;102172.88;;;14.96;70.88
73651;BME280;61944;52.538;6.108;2023-05-23T11:36:29;102184.47;;;15.40;74.03
73651;BME280;61944;52.538;6.108;2023-05-23T11:38:56;102179.19;;;15.92;72.52
73651;BME280;61944;52.538;6.108;2023-05-23T11:41:21;102187.44;;;16.04;71.74
73651;BME280;61944;52.538;6.108;2023-05-23T11:43:50;102184.75;;;16.19;68.77
73651;BME280;61944;52.538;6.108;2023-05-23T11:46:16;102179.28;;;15.99;69.52
73651;BME280;61944;52.538;6.108;2023-05-23T11:48:45;102178.09;;;16.00;74.03
73651;BME280;61944;52.538;6.108;2023-05-23T11:51:11;102183.53;;;15.59;72.36
73651;BME280;61944;52.538;6.108;2023-05-23T11:53:36;102173.69;;;16.03;71.57
73651;BME280;61944;52.538;6.108;2023-05-23T11:56:02;102176.94;;;16.05;71.09
73651;BME280;61944;52.538;6.108;2023-05-23T11:58:30;102184.25;;;16.10;75.88
73651;BME280;61944;52.538;6.108;2023-05-23T12:01:01;102173.53;;;15.65;73.62
73651;BME280;61944;52.538;6.108;2023-05-23T12:03:27;102176.94;;;15.48;74.78
73651;BME280;61944;52.538;6.108;2023-05-23T12:05:56;102184.25;;;15.53;76.29
73651;BME280;61944;52.538;6.108;2023-05-23T12:08:22;102175.94;;;15.63;72.85
73651;BME280;61944;52.538;6.108;2023-05-23T12:13:15;102184.25;;;16.43;72.58
73651;BME280;61944;52.538;6.108;2023-05-23T12:15:41;102192.75;;;15.79;71.55
73651;BME280;61944;52.538;6.108;2023-05-23T12:18:06;102191.91;;;16.09;67.84
73651;BME280;61944;52.538;6.108;2023-05-23T12:20:32;102192.84;;;16.54;70.19
73651;BME280;61944;52.538;6.108;2023-05-23T12:23:03;102198.56;;;16.24;73.63
73651;BME280;61944;52.538;6.108;2023-05-23T12:25:28;102208.78;;;15.49;72.02
73651;BME280;61944;52.538;6.108;2023-05-23T12:27:55;102202.47;;;15.32;73.20
73651;BME280;61944;52.538;6.108;2023-05-23T12:30:20;102209.00;;;15.63;70.12
73651;BME280;61944;52.538;6.108;2023-05-23T12:32:46;102204.38;;;16.04;71.17
73651;BME280;61944;52.538;6.108;2023-05-23T12:35:14;102197.44;;;16.32;69.03
73651;BME280;61944;52.538;6.108;2023-05-23T12:37:43;102209.53;;;15.99;70.93
73651;BME280;61944;52.538;6.108;2023-05-23T12:40:13;102209.47;;;15.95;69.75
73651;BME280;61944;52.538;6.108;2023-05-23T12:42:53;102206.38;;;15.74;69.01
73651;BME280;61944;52.538;6.108;2023-05-23T12:45:23;102211.25;;;16.07;68.37
73651;BME280;61944;52.538;6.108;2023-05-23T12:47:49;102203.38;;;15.90;70.01
73651;BME280;61944;52.538;6.108;2023-05-23T12:50:15;102199.09;;;15.73;71.29
73651;BME280;61944;52.538;6.108;2023-05-23T12:52:40;102205.22;;;15.52;69.51
73651;BME280;61944;52.538;6.108;2023-05-23T12:55:07;102206.09;;;15.56;69.82
73651;BME280;61944;52.538;6.108;2023-05-23T12:57:34;102204.50;;;15.58;70.56
73651;BME280;61944;52.538;6.108;2023-05-23T13:00:00;102215.22;;;15.49;71.71
73651;BME280;61944;52.538;6.108;2023-05-23T13:02:26;102195.91;;;15.51;69.79
73651;BME280;61944;52.538;6.108;2023-05-23T13:04:52;102204.16;;;15.63;74.13